createdAt,value
2022-09-17T00:04:24.369Z,33.10
2022-09-17T00:14:33.202Z,31.40
2022-09-17T00:24:42.255Z,30.60
2022-09-17T00:34:54.842Z,30.30
2022-09-17T00:45:04.811Z,27.30
2022-09-17T00:55:21.494Z,26.80
2022-09-17T01:05:34.894Z,26.60
2022-09-17T01:15:52.547Z,25.70
2022-09-17T01:26:14.950Z,25.10
2022-09-17T01:36:38.641Z,24.30
2022-09-17T01:59:15.209Z,23.70
2022-09-17T02:10:04.667Z,23.60
2022-09-17T02:20:42.499Z,23.40
2022-09-17T02:30:50.062Z,23.30
2022-09-17T02:41:07.517Z,23.30
2022-09-17T02:51:27.237Z,23.30
2022-09-17T03:01:48.000Z,23.20
2022-09-17T03:12:00.164Z,23.20
2022-09-17T03:22:10.829Z,23.10
2022-09-17T03:32:18.371Z,23.20
2022-09-17T03:42:28.127Z,23.30
2022-09-17T03:52:35.366Z,23.30
2022-09-17T04:02:44.721Z,23.40
2022-09-17T04:24:26.485Z,23.40
2022-09-17T04:46:24.926Z,23.40
2022-09-17T05:09:14.729Z,23.50
2022-09-17T05:20:24.821Z,23.40
2022-09-17T05:30:40.650Z,23.40
2022-09-17T05:40:59.128Z,23.40
2022-09-17T05:51:21.506Z,23.50
2022-09-17T06:01:40.683Z,23.40
2022-09-17T06:13:05.525Z,23.50
2022-09-17T07:14:05.808Z,23.10
2022-09-17T14:09:09.218Z,20.10
2022-09-17T14:19:40.604Z,20.10
2022-09-17T14:30:21.815Z,21.00
2022-09-17T14:40:53.645Z,21.40
2022-09-17T14:51:52.163Z,21.60
2022-09-17T15:03:11.219Z,21.80
2022-09-17T15:14:08.735Z,22.00
2022-09-17T15:25:09.490Z,22.30
2022-09-17T15:35:43.618Z,22.40
2022-09-17T15:57:06.764Z,22.50
2022-09-17T16:07:39.760Z,22.60
2022-09-17T16:42:33.956Z,23.00
2022-09-17T16:52:47.858Z,23.20
2022-09-17T17:13:35.730Z,22.80
2022-09-17T17:24:33.861Z,22.80
2022-09-17T17:48:00.845Z,22.70
2022-09-17T17:58:36.967Z,23.10
2022-09-17T18:09:39.754Z,23.30
2022-09-17T18:20:45.834Z,23.30
2022-09-17T18:31:24.866Z,23.30
2022-09-17T18:41:49.095Z,23.30
2022-09-17T18:52:01.516Z,23.10
2022-09-17T19:02:15.766Z,22.60
2022-09-17T19:12:22.994Z,22.40
2022-09-17T19:22:32.388Z,22.50
2022-09-17T19:32:43.137Z,22.30
2022-09-17T19:42:58.853Z,22.40
2022-09-17T19:53:06.075Z,22.20
2022-09-17T20:03:15.436Z,22.50
2022-09-17T20:13:26.037Z,22.30
2022-09-17T20:36:36.256Z,22.60
2022-09-17T20:47:16.907Z,23.30
2022-09-17T20:58:00.054Z,23.80
2022-09-17T21:08:11.941Z,24.00
2022-09-17T21:18:39.475Z,24.00
2022-09-17T21:29:00.023Z,23.90
2022-09-17T21:50:30.589Z,24.10
2022-09-17T22:01:42.102Z,24.30
2022-09-17T22:49:07.352Z,23.70
2022-09-17T22:59:21.058Z,24.40
2022-09-17T23:09:30.177Z,24.30
2022-09-17T23:19:40.566Z,24.30
2022-09-17T23:30:11.667Z,24.30
2022-09-17T23:40:36.954Z,24.40
2022-09-17T23:51:05.208Z,24.60
